Time;durP1;ratioP1;P1;durP2;ratioP2;P2;SDS_P1;SDS_P2;PMS_P1;PMS_P2;Temp;Humidity;BMP_temperature;BMP_pressure;BME280_temperature;BME280_humidity;BME280_pressure;Samples;Min_cycle;Max_cycle;Signal;HPM_P1;HPM_P2
2021/03/27 00:01:10;;;;;;;1.95;1.05;;;22.30;31.40;;;;;;5090060;28;20465;-58
2021/03/27 00:03:50;;;;;;;1.65;1.10;;;22.30;31.40;;;;;;5088856;28;20386;-58
2021/03/27 00:06:30;;;;;;;1.50;1.10;;;22.30;31.60;;;;;;5088882;28;20455;-58
2021/03/27 00:09:03;;;;;;;1.75;1.10;;;22.30;31.50;;;;;;5090201;28;20374;-58
2021/03/27 00:11:59;;;;;;;2.47;1.23;;;22.20;31.40;;;;;;5091104;28;20405;-58
2021/03/27 00:14:46;;;;;;;1.73;1.15;;;22.20;31.60;;;;;;5091340;28;20397;-58
2021/03/27 00:17:20;;;;;;;1.60;1.10;;;22.20;31.10;;;;;;5087011;28;20405;-58
2021/03/27 00:19:53;;;;;;;1.30;0.90;;;22.20;31.40;;;;;;5088636;28;20410;-59
2021/03/27 00:22:21;;;;;;;2.03;1.25;;;22.20;31.50;;;;;;5088975;28;20889;-58
2021/03/27 00:25:01;;;;;;;1.98;1.13;;;22.10;31.40;;;;;;5090893;28;20399;-58
2021/03/27 00:27:46;;;;;;;1.95;1.00;;;22.10;31.50;;;;;;5088825;28;20767;-58
2021/03/27 00:30:18;;;;;;;1.58;1.10;;;22.10;31.60;;;;;;5087019;28;20374;-58
2021/03/27 00:32:48;;;;;;;1.60;1.20;;;22.10;31.50;;;;;;5071144;28;20391;-58
2021/03/27 00:35:35;;;;;;;1.90;1.20;;;22.10;31.50;;;;;;5070661;28;20395;-58
2021/03/27 00:38:04;;;;;;;1.77;1.02;;;22.10;31.60;;;;;;5071042;28;20390;-58
2021/03/27 00:40:34;;;;;;;1.40;1.10;;;22.00;31.60;;;;;;5069586;28;20768;-58
2021/03/27 00:43:10;;;;;;;1.77;1.08;;;22.00;31.30;;;;;;5073426;28;20379;-58
2021/03/27 00:45:46;;;;;;;2.00;1.33;;;22.00;31.40;;;;;;5073513;28;20427;-58
2021/03/27 00:48:37;;;;;;;2.22;1.10;;;22.00;31.50;;;;;;5074756;28;20445;-58
2021/03/27 00:51:12;;;;;;;1.80;1.05;;;22.00;31.50;;;;;;5074560;28;20887;-58
2021/03/27 00:53:46;;;;;;;1.77;1.07;;;21.90;31.50;;;;;;5074682;28;20380;-58
2021/03/27 00:56:17;;;;;;;2.03;1.30;;;21.90;31.40;;;;;;5074680;28;20808;-58
2021/03/27 00:58:56;;;;;;;1.90;1.00;;;21.90;31.40;;;;;;5080251;28;20447;-58
2021/03/27 01:01:23;;;;;;;1.67;1.00;;;21.90;31.50;;;;;;5091503;28;20536;-58
2021/03/27 01:03:54;;;;;;;2.67;1.07;;;21.90;31.90;;;;;;5093412;28;20390;-58
2021/03/27 01:06:51;;;;;;;2.00;1.13;;;21.90;32.30;;;;;;5093238;28;20866;-58
2021/03/27 01:09:21;;;;;;;2.75;1.10;;;21.80;32.40;;;;;;5091429;28;20398;-58
2021/03/27 01:12:11;;;;;;;1.60;1.10;;;21.80;32.50;;;;;;5072805;28;20478;-58
2021/03/27 01:14:45;;;;;;;1.83;1.10;;;21.80;32.60;;;;;;5074318;28;20392;-58
2021/03/27 01:17:16;;;;;;;1.83;0.97;;;21.80;32.60;;;;;;5073516;28;20380;-57
2021/03/27 01:20:07;;;;;;;2.03;1.15;;;21.90;32.90;;;;;;5072879;28;20814;-59
2021/03/27 01:22:33;;;;;;;1.60;1.03;;;21.90;32.90;;;;;;5068374;28;20507;-58
2021/03/27 01:25:02;;;;;;;1.30;1.10;;;21.90;32.70;;;;;;5073925;28;20458;-59
2021/03/27 01:27:46;;;;;;;1.40;1.00;;;21.80;32.50;;;;;;5073743;28;20987;-58
2021/03/27 01:30:19;;;;;;;1.83;1.00;;;21.80;32.10;;;;;;5073982;28;20380;-58
2021/03/27 01:33:01;;;;;;;2.57;1.03;;;21.80;32.00;;;;;;5106569;28;20466;-58
2021/03/27 01:35:36;;;;;;;1.80;1.00;;;21.80;32.00;;;;;;5073521;28;20441;-58
2021/03/27 01:38:07;;;;;;;2.47;1.10;;;21.70;32.00;;;;;;5073778;28;20403;-58
2021/03/27 01:40:33;;;;;;;2.05;1.20;;;21.80;31.80;;;;;;5073788;28;20416;-59
2021/03/27 01:43:20;;;;;;;2.10;1.10;;;21.70;31.80;;;;;;5073254;28;20403;-58
2021/03/27 01:46:10;;;;;;;1.70;1.10;;;21.70;31.60;;;;;;5073497;28;20855;-58
2021/03/27 01:49:00;;;;;;;1.60;0.90;;;21.70;31.60;;;;;;5073625;28;20418;-59
2021/03/27 01:51:58;;;;;;;1.48;1.08;;;21.70;31.60;;;;;;5073179;28;20384;-58
2021/03/27 01:54:34;;;;;;;1.67;1.00;;;21.70;32.50;;;;;;5073322;28;20438;-58
2021/03/27 01:57:11;;;;;;;1.88;1.08;;;21.70;31.90;;;;;;5073527;28;20419;-58
2021/03/27 01:59:43;;;;;;;2.10;1.05;;;21.70;31.90;;;;;;5071669;28;20506;-59
2021/03/27 02:02:15;;;;;;;2.30;1.17;;;21.60;31.50;;;;;;5073536;28;20989;-58
2021/03/27 02:04:48;;;;;;;1.70;1.00;;;21.60;31.70;;;;;;5073490;28;20384;-58
2021/03/27 02:07:48;;;;;;;1.50;0.90;;;21.60;31.60;;;;;;5071618;28;20392;-58
2021/03/27 02:10:19;;;;;;;1.75;0.98;;;21.70;32.10;;;;;;5073386;28;20380;-58
2021/03/27 02:13:13;;;;;;;1.80;1.10;;;21.70;32.10;;;;;;5072832;28;21044;-58
2021/03/27 02:16:20;;;;;;;1.70;0.98;;;21.80;32.00;;;;;;5069166;28;20399;-58
2021/03/27 02:19:11;;;;;;;1.67;0.98;;;21.90;32.10;;;;;;5058669;28;20388;-58
2021/03/27 02:21:46;;;;;;;1.75;1.10;;;22.00;32.00;;;;;;5054065;28;20424;-58
2021/03/27 02:24:27;;;;;;;1.40;0.90;;;22.00;31.80;;;;;;5073112;28;20856;-58
2021/03/27 02:27:13;;;;;;;1.67;1.00;;;22.10;31.80;;;;;;5071734;28;20475;-58
2021/03/27 02:30:02;;;;;;;1.63;0.90;;;22.10;31.70;;;;;;5072853;28;20416;-58
2021/03/27 02:33:08;;;;;;;1.60;1.00;;;22.10;31.60;;;;;;5072874;28;20383;-58
2021/03/27 02:35:49;;;;;;;1.30;0.90;;;22.10;31.60;;;;;;5066728;28;20410;-58
2021/03/27 02:38:23;;;;;;;1.73;1.10;;;22.10;31.50;;;;;;5072788;28;20460;-57
2021/03/27 02:41:00;;;;;;;1.60;0.80;;;22.20;31.50;;;;;;5072626;28;20411;-58
2021/03/27 02:43:55;;;;;;;1.50;1.00;;;22.20;31.40;;;;;;5072218;28;20869;-58
2021/03/27 02:46:44;;;;;;;1.53;0.90;;;22.20;31.40;;;;;;5072525;28;20399;-58
2021/03/27 02:49:25;;;;;;;1.40;1.10;;;22.20;31.20;;;;;;5071428;28;20506;-57
2021/03/27 02:52:15;;;;;;;1.25;0.98;;;22.20;31.20;;;;;;5072613;28;20445;-57
2021/03/27 02:54:57;;;;;;;1.75;1.10;;;22.30;31.20;;;;;;5072465;28;20437;-58
2021/03/27 02:57:41;;;;;;;1.57;1.00;;;22.30;31.20;;;;;;5071914;28;20479;-57
2021/03/27 03:00:19;;;;;;;1.65;1.00;;;22.30;31.10;;;;;;5070731;28;20788;-58
2021/03/27 03:02:50;;;;;;;1.67;1.00;;;22.30;31.10;;;;;;5072411;28;20898;-58
2021/03/27 03:05:18;;;;;;;1.60;1.00;;;22.30;31.10;;;;;;5069942;28;20475;-59
2021/03/27 03:07:53;;;;;;;1.42;1.08;;;22.30;31.00;;;;;;5072020;28;20438;-58
2021/03/27 03:10:46;;;;;;;1.58;1.10;;;22.30;31.00;;;;;;5070855;28;20463;-58
2021/03/27 03:13:33;;;;;;;1.30;0.90;;;22.30;31.00;;;;;;5071828;28;20752;-58
2021/03/27 03:16:24;;;;;;;1.70;0.90;;;22.30;31.00;;;;;;5071432;28;20474;-59
2021/03/27 03:19:06;;;;;;;1.40;0.90;;;22.30;31.00;;;;;;5071874;28;20462;-58
2021/03/27 03:21:45;;;;;;;1.27;0.90;;;22.40;31.00;;;;;;5071279;28;20423;-58
2021/03/27 03:24:22;;;;;;;1.30;1.00;;;22.40;31.00;;;;;;5071973;28;20410;-58
2021/03/27 03:27:14;;;;;;;1.63;1.00;;;22.40;30.90;;;;;;5071835;28;20388;-58
2021/03/27 03:29:59;;;;;;;1.20;0.88;;;22.40;30.90;;;;;;5071533;28;20391;-58
2021/03/27 03:32:51;;;;;;;1.53;1.00;;;22.40;30.90;;;;;;5071821;28;20390;-59
2021/03/27 03:35:41;;;;;;;1.40;0.95;;;22.40;30.80;;;;;;5071400;28;20392;-58
2021/03/27 03:38:19;;;;;;;1.70;1.10;;;22.40;30.80;;;;;;5071755;28;20775;-58
2021/03/27 03:41:06;;;;;;;1.40;0.97;;;22.40;30.80;;;;;;5071669;28;20455;-58
2021/03/27 03:44:03;;;;;;;1.60;0.90;;;22.40;30.70;;;;;;5071143;28;20470;-58
2021/03/27 03:46:57;;;;;;;1.50;1.00;;;22.40;30.70;;;;;;5070170;28;20436;-58
2021/03/27 03:49:41;;;;;;;1.83;1.08;;;22.40;30.70;;;;;;5075180;28;20535;-58
2021/03/27 03:52:13;;;;;;;1.70;1.10;;;22.40;30.70;;;;;;5091626;28;20866;-58
2021/03/27 03:55:01;;;;;;;1.83;1.30;;;22.40;30.70;;;;;;5090230;28;20394;-58
2021/03/27 03:57:30;;;;;;;2.20;1.30;;;22.40;30.60;;;;;;5090944;28;20444;-57
2021/03/27 04:00:07;;;;;;;2.40;1.40;;;22.40;30.60;;;;;;5090083;28;20450;-57
2021/03/27 04:02:38;;;;;;;1.83;1.30;;;22.40;30.60;;;;;;5091533;28;20394;-58
2021/03/27 04:05:21;;;;;;;2.20;1.60;;;22.40;30.60;;;;;;5091668;28;20461;-59
2021/03/27 04:08:03;;;;;;;2.08;1.42;;;22.40;30.60;;;;;;5091537;28;20881;-58
2021/03/27 04:10:32;;;;;;;2.40;1.50;;;22.40;30.50;;;;;;5091512;28;20401;-58
2021/03/27 04:13:13;;;;;;;2.90;1.73;;;22.40;30.60;;;;;;5091463;28;20411;-58
2021/03/27 04:16:08;;;;;;;2.13;1.60;;;22.40;30.60;;;;;;5090882;28;20394;-60
2021/03/27 04:19:09;;;;;;;2.50;1.80;;;22.40;30.50;;;;;;5094311;28;20785;-58
2021/03/27 04:22:00;;;;;;;2.10;1.40;;;22.40;30.50;;;;;;5095026;28;20413;-58
2021/03/27 04:24:43;;;;;;;2.38;1.73;;;22.40;30.50;;;;;;5095520;28;20378;-58
2021/03/27 04:27:26;;;;;;;2.47;1.50;;;22.40;30.50;;;;;;5095435;28;20844;-57
2021/03/27 04:30:13;;;;;;;2.08;1.48;;;22.40;30.50;;;;;;5095458;28;20377;-57
2021/03/27 04:32:43;;;;;;;2.75;1.60;;;22.40;30.50;;;;;;5095101;28;20378;-58
2021/03/27 04:35:24;;;;;;;2.28;1.50;;;22.40;30.50;;;;;;5095307;28;20393;-58
2021/03/27 04:38:06;;;;;;;2.50;1.65;;;22.40;30.40;;;;;;5095214;28;20431;-58
2021/03/27 04:41:04;;;;;;;2.22;1.40;;;22.40;30.50;;;;;;5095173;28;20416;-58
2021/03/27 04:43:44;;;;;;;2.25;1.58;;;22.40;30.50;;;;;;5094117;28;20471;-59
2021/03/27 04:46:27;;;;;;;2.33;1.57;;;22.40;30.40;;;;;;5094943;28;20892;-61
2021/03/27 04:49:37;;;;;;;2.22;1.48;;;22.40;30.50;;;;;;5094521;28;20390;-58
2021/03/27 04:52:03;;;;;;;2.20;1.42;;;22.40;30.40;;;;;;5052560;28;20389;-60
2021/03/27 04:54:51;;;;;;;2.35;1.40;;;22.40;30.50;;;;;;5081158;28;20775;-58
2021/03/27 04:57:34;;;;;;;2.03;1.50;;;22.40;30.40;;;;;;5094742;28;20439;-58
2021/03/27 05:00:19;;;;;;;2.40;1.50;;;22.40;30.40;;;;;;5094646;28;20492;-58
2021/03/27 05:03:11;;;;;;;2.10;1.52;;;22.40;30.40;;;;;;5093417;28;20872;-58
2021/03/27 05:05:52;;;;;;;2.60;1.65;;;22.40;30.40;;;;;;5094311;28;20382;-58
2021/03/27 05:08:52;;;;;;;2.00;1.50;;;22.40;30.30;;;;;;5094678;28;20382;-58
2021/03/27 05:11:41;;;;;;;2.30;1.50;;;22.40;30.30;;;;;;5094510;28;20383;-58
2021/03/27 05:14:30;;;;;;;2.10;1.30;;;22.40;30.30;;;;;;5094707;28;20881;-58
2021/03/27 05:17:10;;;;;;;2.50;1.60;;;22.40;30.30;;;;;;5094252;28;20379;-58
2021/03/27 05:19:56;;;;;;;3.13;1.73;;;22.40;30.70;;;;;;5093890;28;20433;-58
2021/03/27 05:22:55;;;;;;;2.77;1.60;;;22.30;29.80;;;;;;5094438;28;20919;-58
2021/03/27 05:25:38;;;;;;;2.30;1.60;;;22.20;30.00;;;;;;5092880;28;20437;-58
2021/03/27 05:28:08;;;;;;;3.13;1.63;;;22.20;30.50;;;;;;5093669;28;20386;-58
2021/03/27 05:30:42;;;;;;;3.47;1.70;;;22.20;30.20;;;;;;5094291;28;20378;-59
2021/03/27 05:33:18;;;;;;;2.50;1.48;;;22.20;30.40;;;;;;5094294;28;20469;-58
2021/03/27 05:36:35;;;;;;;2.30;1.60;;;22.20;30.40;;;;;;5093927;28;20388;-58
2021/03/27 05:39:21;;;;;;;2.60;1.70;;;22.10;30.30;;;;;;5070776;28;20789;-58
2021/03/27 05:41:53;;;;;;;3.38;1.83;;;22.10;30.60;;;;;;5093944;28;20439;-58
2021/03/27 05:44:54;;;;;;;3.38;1.70;;;22.10;30.60;;;;;;5094046;28;20382;-58
2021/03/27 05:47:57;;;;;;;3.30;1.80;;;22.10;30.60;;;;;;5093055;28;20379;-58
2021/03/27 05:50:28;;;;;;;2.53;1.60;;;22.10;30.60;;;;;;5093596;28;20389;-59
2021/03/27 05:53:05;;;;;;;2.17;1.40;;;22.10;30.60;;;;;;5093909;28;20378;-59
2021/03/27 05:55:50;;;;;;;2.60;1.50;;;22.10;30.60;;;;;;5093067;28;20416;-58
2021/03/27 05:58:31;;;;;;;3.42;1.70;;;22.10;30.70;;;;;;5092862;28;20531;-58
2021/03/27 06:01:43;;;;;;;2.58;1.58;;;22.00;30.80;;;;;;5093335;28;20906;-58
2021/03/27 06:04:47;;;;;;;2.88;1.52;;;22.10;31.00;;;;;;5089075;28;20396;-58
2021/03/27 06:07:22;;;;;;;3.05;1.50;;;22.10;30.70;;;;;;5093136;28;20439;-57
2021/03/27 06:09:58;;;;;;;3.25;1.63;;;22.10;31.00;;;;;;5093267;28;20386;-57
2021/03/27 06:12:51;;;;;;;3.90;1.50;;;22.10;30.90;;;;;;5093260;28;20382;-58
2021/03/27 06:15:50;;;;;;;3.13;1.65;;;22.00;31.10;;;;;;5093398;28;20795;-58
2021/03/27 06:18:27;;;;;;;4.93;1.88;;;22.10;31.30;;;;;;5093366;28;20378;-58
2021/03/27 06:21:17;;;;;;;3.75;1.50;;;22.00;31.10;;;;;;5092949;28;20433;-58
2021/03/27 06:24:01;;;;;;;4.15;1.48;;;22.00;31.10;;;;;;5093080;28;20374;-58
2021/03/27 06:27:07;;;;;;;3.20;1.60;;;22.10;31.10;;;;;;5091566;28;20394;-58
2021/03/27 06:30:09;;;;;;;2.63;1.73;;;22.10;31.20;;;;;;5050091;28;20402;-58
2021/03/27 06:33:20;;;;;;;5.13;2.13;;;22.00;31.10;;;;;;5092356;28;20385;-58
2021/03/27 06:35:51;;;;;;;5.40;1.80;;;22.10;31.30;;;;;;5091928;28;20739;-58
2021/03/27 06:38:44;;;;;;;6.38;1.80;;;22.10;31.60;;;;;;5092606;28;20791;-58
2021/03/27 06:41:30;;;;;;;5.43;1.95;;;22.20;31.80;;;;;;5091794;28;20414;-58
2021/03/27 06:44:27;;;;;;;4.35;1.98;;;22.20;31.70;;;;;;5092891;28;20378;-58
2021/03/27 06:47:08;;;;;;;6.07;1.75;;;22.10;31.60;;;;;;5092539;28;20893;-58
2021/03/27 06:50:04;;;;;;;5.05;2.00;;;22.10;31.70;;;;;;5092061;28;20382;-58
2021/03/27 06:53:07;;;;;;;4.03;1.80;;;22.10;31.90;;;;;;5092584;28;20412;-58
2021/03/27 06:55:59;;;;;;;6.22;1.60;;;22.10;32.80;;;;;;5091950;28;20754;-58
2021/03/27 06:58:56;;;;;;;6.10;1.85;;;22.10;32.40;;;;;;5092182;28;20378;-59
2021/03/27 07:01:24;;;;;;;5.53;1.92;;;22.20;32.30;;;;;;5092151;28;20424;-58
2021/03/27 07:03:50;;;;;;;4.20;1.83;;;22.10;32.20;;;;;;5092099;28;20390;-58
2021/03/27 07:06:49;;;;;;;4.03;1.73;;;22.10;32.40;;;;;;5092361;28;20427;-58
2021/03/27 07:09:48;;;;;;;3.13;1.70;;;22.20;32.50;;;;;;5092382;28;20386;-58
2021/03/27 07:12:33;;;;;;;4.77;2.03;;;22.10;32.20;;;;;;5092392;28;20527;-58
2021/03/27 07:15:31;;;;;;;5.25;1.80;;;22.10;32.20;;;;;;5092305;28;20378;-57
2021/03/27 07:18:05;;;;;;;5.85;2.00;;;22.00;32.10;;;;;;5091998;28;20382;-58
2021/03/27 07:21:03;;;;;;;3.70;1.70;;;22.10;32.00;;;;;;5091884;28;20957;-58
2021/03/27 07:24:02;;;;;;;3.78;1.70;;;22.10;31.90;;;;;;5091637;28;20727;-58
2021/03/27 07:26:46;;;;;;;3.50;1.70;;;22.10;31.70;;;;;;5092011;28;20432;-58
2021/03/27 07:29:57;;;;;;;4.05;1.73;;;22.10;31.70;;;;;;5092044;28;20468;-58
2021/03/27 07:32:44;;;;;;;4.80;1.83;;;22.10;31.60;;;;;;5091505;28;20386;-58
2021/03/27 07:35:31;;;;;;;3.95;1.73;;;22.00;31.70;;;;;;5091518;28;20896;-58
2021/03/27 07:38:25;;;;;;;4.05;1.70;;;22.00;31.60;;;;;;5091989;28;20464;-58
2021/03/27 07:41:01;;;;;;;4.05;1.80;;;22.10;31.40;;;;;;5091746;28;20417;-58
2021/03/27 07:43:53;;;;;;;4.88;1.70;;;22.10;31.50;;;;;;5091482;28;20953;-57
2021/03/27 07:46:28;;;;;;;4.13;1.60;;;22.10;31.50;;;;;;5091735;28;20901;-58
2021/03/27 07:48:53;;;;;;;3.20;1.70;;;22.10;31.40;;;;;;5091599;28;20473;-57
2021/03/27 07:51:25;;;;;;;4.10;1.80;;;22.00;31.40;;;;;;5091308;28;20472;-58
2021/03/27 07:54:22;;;;;;;3.20;1.70;;;22.00;31.30;;;;;;5091443;28;20386;-58
2021/03/27 07:57:00;;;;;;;2.85;1.70;;;22.00;31.30;;;;;;5091757;28;20382;-58
2021/03/27 07:59:28;;;;;;;3.40;1.67;;;22.00;31.20;;;;;;5089669;28;20402;-58
2021/03/27 08:02:04;;;;;;;4.50;1.83;;;22.00;31.20;;;;;;5090962;28;20794;-58
2021/03/27 08:05:08;;;;;;;5.28;1.63;;;22.00;31.20;;;;;;5091521;28;20484;-58
2021/03/27 08:07:56;;;;;;;2.80;1.60;;;22.00;31.20;;;;;;5046061;28;20459;-58
2021/03/27 08:11:06;;;;;;;4.50;1.70;;;22.00;31.20;;;;;;5090092;28;20412;-58
2021/03/27 08:13:47;;;;;;;3.80;1.67;;;22.00;31.20;;;;;;5090938;28;20451;-58
2021/03/27 08:16:24;;;;;;;3.95;1.80;;;21.90;31.20;;;;;;5091480;28;20469;-58
2021/03/27 08:19:03;;;;;;;4.95;1.73;;;21.90;31.30;;;;;;5091108;28;20779;-58
2021/03/27 08:22:14;;;;;;;4.10;1.73;;;22.00;31.40;;;;;;5091027;28;20479;-58
2021/03/27 08:24:52;;;;;;;5.40;1.90;;;21.90;31.30;;;;;;5059973;28;20416;-58
2021/03/27 08:27:36;;;;;;;4.03;1.73;;;21.90;31.30;;;;;;5090001;28;20480;-59
2021/03/27 08:30:39;;;;;;;3.10;1.60;;;21.90;31.30;;;;;;5091361;28;20738;-58
2021/03/27 08:33:11;;;;;;;3.70;1.83;;;21.90;31.30;;;;;;5091185;28;20750;-58
2021/03/27 08:36:14;;;;;;;3.42;1.60;;;21.90;31.20;;;;;;5090731;28;20378;-58
2021/03/27 08:39:33;;;;;;;4.90;1.90;;;21.90;31.40;;;;;;5091179;28;20402;-58
2021/03/27 08:42:25;;;;;;;4.25;1.83;;;21.90;31.30;;;;;;5009174;28;20420;-58
2021/03/27 08:45:17;;;;;;;3.40;1.70;;;21.90;31.30;;;;;;5091193;28;20378;-58
2021/03/27 08:47:51;;;;;;;3.83;1.73;;;21.80;31.20;;;;;;5089407;28;20890;-59
2021/03/27 08:50:31;;;;;;;4.13;1.83;;;21.80;31.30;;;;;;5090255;28;20481;-58
2021/03/27 08:53:34;;;;;;;3.75;1.70;;;21.80;31.20;;;;;;5088455;28;20393;-58
2021/03/27 08:56:12;;;;;;;3.00;1.70;;;21.90;31.20;;;;;;5089280;28;20805;-58
2021/03/27 08:59:42;;;;;;;3.47;1.70;;;21.80;31.20;;;;;;5090999;28;20464;-58
2021/03/27 09:02:36;;;;;;;2.75;1.58;;;21.80;31.20;;;;;;5031531;28;20914;-58
2021/03/27 09:05:20;;;;;;;3.55;1.80;;;21.80;31.20;;;;;;5094259;28;20382;-58
2021/03/27 09:08:03;;;;;;;3.65;1.73;;;21.80;31.20;;;;;;5093822;28;20394;-58
2021/03/27 09:10:30;;;;;;;2.90;1.70;;;21.80;31.30;;;;;;5092908;28;20382;-59
2021/03/27 09:13:13;;;;;;;3.80;1.60;;;21.80;31.20;;;;;;5093778;28;20477;-58
2021/03/27 09:15:52;;;;;;;3.22;1.77;;;21.80;31.10;;;;;;5092901;28;20385;-58
2021/03/27 09:18:55;;;;;;;2.60;1.60;;;21.80;31.10;;;;;;5093277;28;20390;-59
2021/03/27 09:21:26;;;;;;;2.78;1.50;;;21.80;31.20;;;;;;5092402;28;20421;-59
2021/03/27 09:24:33;;;;;;;3.28;1.58;;;21.80;31.20;;;;;;5094321;28;20382;-59
2021/03/27 09:27:29;;;;;;;2.25;1.50;;;21.80;31.20;;;;;;5094418;28;20419;-58
2021/03/27 09:30:06;;;;;;;3.85;1.63;;;21.80;31.20;;;;;;5094144;28;20425;-58
2021/03/27 09:33:05;;;;;;;3.15;1.70;;;21.70;31.10;;;;;;5094173;28;20846;-58
2021/03/27 09:35:49;;;;;;;4.28;1.45;;;21.80;31.20;;;;;;5093879;28;20440;-58
2021/03/27 09:38:27;;;;;;;2.53;1.50;;;21.80;31.20;;;;;;5094075;28;20439;-58
2021/03/27 09:40:55;;;;;;;3.07;1.57;;;21.80;31.20;;;;;;5094073;28;20406;-58
2021/03/27 09:43:54;;;;;;;2.00;1.20;;;21.80;31.10;;;;;;5093904;28;20435;-58
2021/03/27 09:46:46;;;;;;;2.63;1.30;;;21.80;31.30;;;;;;5093619;28;20374;-58
2021/03/27 09:49:32;;;;;;;3.47;1.67;;;21.80;31.40;;;;;;5090258;28;20402;-58
2021/03/27 09:52:25;;;;;;;3.03;1.60;;;21.90;31.60;;;;;;5090999;28;20408;-59
2021/03/27 09:55:07;;;;;;;3.00;1.20;;;21.80;31.50;;;;;;5083299;28;20402;-58
2021/03/27 09:57:53;;;;;;;3.33;1.25;;;21.80;31.50;;;;;;5087784;28;20390;-58
2021/03/27 10:00:40;;;;;;;4.90;1.58;;;21.70;31.60;;;;;;5088938;28;20414;-60
2021/03/27 10:03:15;;;;;;;4.40;1.65;;;21.70;31.70;;;;;;5090167;28;20394;-59
2021/03/27 10:05:59;;;;;;;3.17;1.43;;;21.70;31.90;;;;;;5087713;28;20491;-58
2021/03/27 10:08:47;;;;;;;2.53;1.40;;;21.60;31.90;;;;;;5089811;28;20945;-58
2021/03/27 10:11:23;;;;;;;5.22;1.40;;;21.60;31.60;;;;;;5086985;28;20405;-58
2021/03/27 10:13:59;;;;;;;8.55;1.70;;;21.60;32.10;;;;;;5090085;28;20884;-58
2021/03/27 10:16:56;;;;;;;5.38;1.35;;;21.70;32.80;;;;;;5090489;28;20873;-59
2021/03/27 10:19:25;;;;;;;4.75;1.40;;;21.80;33.40;;;;;;5090308;28;20390;-59
2021/03/27 10:21:53;;;;;;;4.30;1.30;;;21.80;33.20;;;;;;5089823;28;20410;-58
2021/03/27 10:24:47;;;;;;;4.80;1.20;;;22.00;33.00;;;;;;5090738;28;20603;-58
2021/03/27 10:27:44;;;;;;;6.75;1.48;;;22.10;33.40;;;;;;5089611;28;20874;-59
2021/03/27 10:30:28;;;;;;;4.57;1.35;;;22.10;34.50;;;;;;5087685;28;20402;-58
2021/03/27 10:33:07;;;;;;;5.07;1.70;;;22.20;33.60;;;;;;5087978;28;20877;-58
2021/03/27 10:35:45;;;;;;;3.45;1.33;;;22.20;33.80;;;;;;5088463;28;20394;-58
2021/03/27 10:38:26;;;;;;;4.10;1.47;;;22.20;33.80;;;;;;5089701;28;20429;-58
2021/03/27 10:41:17;;;;;;;3.58;1.10;;;22.20;33.60;;;;;;5089991;28;20402;-59
2021/03/27 10:43:52;;;;;;;3.50;1.27;;;22.30;33.70;;;;;;5088851;28;20420;-58
2021/03/27 10:46:39;;;;;;;4.85;1.30;;;22.30;33.60;;;;;;5089232;28;20385;-58
2021/03/27 10:49:13;;;;;;;5.80;1.58;;;22.30;33.90;;;;;;5089405;28;20812;-58
2021/03/27 10:51:58;;;;;;;5.35;1.30;;;22.30;33.70;;;;;;5089118;28;20392;-58
2021/03/27 10:54:52;;;;;;;8.40;1.50;;;22.40;33.70;;;;;;5088982;28;20862;-58
2021/03/27 10:57:26;;;;;;;3.17;1.23;;;22.40;33.70;;;;;;5089142;28;20886;-58
2021/03/27 11:00:29;;;;;;;6.78;1.55;;;22.40;33.60;;;;;;5088214;28;20421;-59
2021/03/27 11:03:52;;;;;;;6.20;1.33;;;22.40;33.90;;;;;;5089026;28;20493;-58
2021/03/27 11:06:39;;;;;;;6.30;1.23;;;22.40;33.90;;;;;;5007227;28;20401;-58
2021/03/27 11:09:29;;;;;;;5.72;1.15;;;22.50;33.50;;;;;;5005523;28;20980;-59
2021/03/27 11:12:33;;;;;;;9.05;1.45;;;22.40;33.80;;;;;;5080554;28;20398;-58
2021/03/27 11:15:16;;;;;;;6.95;1.58;;;22.40;33.90;;;;;;5089394;28;20382;-59
2021/03/27 11:18:00;;;;;;;7.45;1.10;;;22.40;33.70;;;;;;5087252;28;20382;-60
2021/03/27 11:21:07;;;;;;;6.60;1.33;;;22.30;33.40;;;;;;5088410;28;20451;-58
2021/03/27 11:24:07;;;;;;;7.80;1.57;;;22.40;34.40;;;;;;5068122;28;20484;-58
2021/03/27 11:26:47;;;;;;;8.35;1.50;;;22.40;34.30;;;;;;5088720;28;20420;-58
2021/03/27 11:29:38;;;;;;;7.13;1.50;;;22.40;34.10;;;;;;5089462;28;20390;-59
2021/03/27 11:32:22;;;;;;;6.10;1.27;;;22.40;34.20;;;;;;5088074;28;20378;-58
2021/03/27 11:34:59;;;;;;;6.07;1.30;;;22.40;34.30;;;;;;5088850;28;20378;-63
2021/03/27 11:37:37;;;;;;;5.50;1.40;;;22.50;34.50;;;;;;5088051;28;20391;-58
2021/03/27 11:40:26;;;;;;;8.18;1.40;;;22.50;34.30;;;;;;5087644;28;20398;-58
2021/03/27 11:43:17;;;;;;;8.40;1.30;;;22.40;34.10;;;;;;5089458;28;20421;-58
2021/03/27 11:45:49;;;;;;;4.82;1.10;;;22.40;34.30;;;;;;5089917;28;20382;-58
2021/03/27 11:48:28;;;;;;;7.77;1.50;;;22.40;33.80;;;;;;5090275;28;20459;-58
2021/03/27 11:51:03;;;;;;;4.57;1.23;;;22.30;33.90;;;;;;5090171;28;20394;-58
2021/03/27 11:54:01;;;;;;;6.75;1.20;;;22.30;34.00;;;;;;5088615;28;20386;-59
2021/03/27 11:56:54;;;;;;;7.40;1.27;;;22.30;33.10;;;;;;5088375;28;20386;-58
2021/03/27 11:59:43;;;;;;;6.85;1.63;;;22.30;34.30;;;;;;5089815;28;20409;-58
2021/03/27 12:02:35;;;;;;;12.02;1.70;;;22.30;35.40;;;;;;5088702;28;20413;-58
2021/03/27 12:05:29;;;;;;;6.88;1.40;;;22.30;35.10;;;;;;5090276;28;20457;-58
2021/03/27 12:08:15;;;;;;;8.65;1.20;;;22.30;35.70;;;;;;5088743;28;20406;-58
2021/03/27 12:11:00;;;;;;;5.73;1.20;;;22.30;35.40;;;;;;5087498;28;20885;-58
2021/03/27 12:13:43;;;;;;;6.40;1.48;;;22.40;35.60;;;;;;5087935;28;20366;-58
2021/03/27 12:16:27;;;;;;;5.47;1.10;;;22.40;35.10;;;;;;5086006;28;20412;-59
2021/03/27 12:18:59;;;;;;;9.65;1.40;;;22.40;36.80;;;;;;5089451;28;20377;-58
2021/03/27 12:22:01;;;;;;;4.35;1.00;;;22.40;35.70;;;;;;5087295;28;20835;-58
2021/03/27 12:24:30;;;;;;;5.60;1.20;;;22.40;34.30;;;;;;5072030;28;20390;-58
2021/03/27 12:27:14;;;;;;;3.83;1.03;;;22.40;35.10;;;;;;5086115;28;20406;-59
2021/03/27 12:29:44;;;;;;;3.95;0.90;;;22.40;33.10;;;;;;5087326;28;20378;-62
2021/03/27 12:32:28;;;;;;;7.70;1.05;;;22.40;32.80;;;;;;5087757;28;20398;-65
2021/03/27 12:35:10;;;;;;;3.90;1.02;;;22.30;32.40;;;;;;5087310;28;20386;-62
2021/03/27 12:37:52;;;;;;;7.33;1.20;;;22.40;32.50;;;;;;5088412;28;20500;-58
2021/03/27 12:40:31;;;;;;;5.18;1.00;;;22.30;32.50;;;;;;5091307;28;20402;-65
2021/03/27 12:43:13;;;;;;;3.38;1.00;;;22.40;32.50;;;;;;5091940;28;20397;-63
2021/03/27 12:45:43;;;;;;;5.70;0.98;;;22.40;32.50;;;;;;5090869;28;20432;-64
2021/03/27 12:48:50;;;;;;;4.13;1.20;;;22.40;32.50;;;;;;5091605;28;20400;-65
2021/03/27 12:51:31;;;;;;;5.30;1.00;;;22.40;32.40;;;;;;5053037;28;20394;-65
2021/03/27 12:54:06;;;;;;;3.17;0.80;;;22.40;32.40;;;;;;5090854;28;20899;-66
2021/03/27 12:56:54;;;;;;;3.92;0.82;;;22.40;32.30;;;;;;5091350;28;21200;-59
2021/03/27 12:59:44;;;;;;;3.03;0.65;;;22.50;32.30;;;;;;5090855;28;20433;-62
2021/03/27 13:02:28;;;;;;;5.53;0.80;;;22.50;32.10;;;;;;5089446;28;20425;-59
2021/03/27 13:05:04;;;;;;;2.28;0.80;;;22.40;32.10;;;;;;5092526;28;20877;-58
2021/03/27 13:07:35;;;;;;;3.72;0.90;;;22.40;31.70;;;;;;5090988;28;20416;-58
2021/03/27 13:10:21;;;;;;;4.63;0.93;;;22.30;32.30;;;;;;5091554;28;20401;-59
2021/03/27 13:13:08;;;;;;;5.15;1.02;;;22.30;32.70;;;;;;5089547;28;20481;-59
2021/03/27 13:15:48;;;;;;;2.33;0.90;;;22.30;32.50;;;;;;5091808;28;20384;-59
2021/03/27 13:18:24;;;;;;;5.00;1.00;;;22.30;32.10;;;;;;5090796;28;20398;-66
2021/03/27 13:20:53;;;;;;;4.47;0.90;;;22.30;31.70;;;;;;5089155;28;20417;-60
2021/03/27 13:23:27;;;;;;;3.85;0.90;;;22.40;31.70;;;;;;5087870;28;20463;-58
2021/03/27 13:26:02;;;;;;;8.07;1.40;;;22.40;31.70;;;;;;5089764;28;20410;-58
2021/03/27 13:28:45;;;;;;;11.45;1.73;;;22.30;32.00;;;;;;5092178;28;20479;-67
2021/03/27 13:31:23;;;;;;;14.68;1.60;;;22.30;32.70;;;;;;5093092;28;20402;-64
2021/03/27 13:34:11;;;;;;;13.68;1.90;;;22.30;33.20;;;;;;5092799;28;20734;-61
2021/03/27 13:36:42;;;;;;;10.98;1.20;;;22.20;33.50;;;;;;5093694;28;20731;-61
2021/03/27 17:45:11;;;;;;;7.90;1.00;;;23.40;32.40;;;;;;5233091;22;20427;-59
2021/03/27 17:47:45;;;;;;;4.55;0.70;;;23.40;32.10;;;;;;5040022;28;20439;-57
2021/03/27 17:50:29;;;;;;;4.93;0.95;;;23.50;31.60;;;;;;5106039;28;20897;-56
2021/03/27 17:53:00;;;;;;;8.32;1.00;;;23.60;32.10;;;;;;5100700;28;20402;-56
2021/03/27 17:55:35;;;;;;;7.20;1.10;;;23.70;32.00;;;;;;5092458;28;20386;-56
2021/03/27 17:58:06;;;;;;;4.55;1.00;;;23.80;32.30;;;;;;5092051;28;20389;-65
2021/03/27 18:00:43;;;;;;;5.78;1.10;;;23.80;31.90;;;;;;5091732;28;20405;-57
2021/03/27 18:03:37;;;;;;;4.88;0.77;;;23.90;31.50;;;;;;5092435;28;20393;-57
2021/03/27 18:06:08;;;;;;;4.53;0.82;;;24.00;32.20;;;;;;5101319;28;20386;-58
2021/03/27 18:08:45;;;;;;;5.28;1.00;;;24.10;33.10;;;;;;5100147;28;20785;-56
2021/03/27 18:11:22;;;;;;;4.32;1.00;;;24.10;33.40;;;;;;5102708;28;20399;-56
2021/03/27 18:14:01;;;;;;;5.00;0.90;;;24.20;33.50;;;;;;5101598;28;20397;-57
2021/03/27 18:16:41;;;;;;;7.70;0.93;;;24.20;33.40;;;;;;5112659;28;20376;-57
2021/03/27 18:19:20;;;;;;;3.67;0.90;;;24.30;33.20;;;;;;5106154;28;20476;-56